createdAt,value
2023-05-31T00:00:38.080Z,39.73
2023-05-31T00:02:40.978Z,40.16
2023-05-31T00:04:43.868Z,40.10
2023-05-31T00:06:46.482Z,40.10
2023-05-31T00:08:49.128Z,40.00
2023-05-31T00:10:51.797Z,39.86
2023-05-31T00:12:54.482Z,40.12
2023-05-31T00:15:00.249Z,40.15
2023-05-31T00:17:31.008Z,40.17
2023-05-31T00:19:27.039Z,40.08
2023-05-31T00:21:29.770Z,40.02
2023-05-31T00:23:32.414Z,40.20
2023-05-31T00:25:35.035Z,40.12
2023-05-31T00:27:37.648Z,40.57
2023-05-31T00:29:40.293Z,40.55
2023-05-31T00:31:44.432Z,40.25
2023-05-31T00:33:47.051Z,39.98
2023-05-31T00:35:49.751Z,40.05
2023-05-31T00:37:52.460Z,40.31
2023-05-31T00:39:55.078Z,41.27
2023-05-31T00:41:57.789Z,41.98
2023-05-31T00:44:00.417Z,41.48
2023-05-31T00:46:03.756Z,41.21
2023-05-31T00:48:08.604Z,41.47
2023-05-31T00:50:12.203Z,41.34
2023-05-31T00:52:14.963Z,41.14
2023-05-31T00:54:17.678Z,41.17
2023-05-31T00:56:22.864Z,42.50
2023-05-31T00:58:26.397Z,42.51
2023-05-31T01:00:29.848Z,42.26
2023-05-31T01:02:33.928Z,42.46
2023-05-31T01:04:37.894Z,42.46
2023-05-31T01:06:40.586Z,41.98
2023-05-31T01:08:43.417Z,41.86
2023-05-31T01:10:46.688Z,41.86
2023-05-31T01:12:58.224Z,41.71
2023-05-31T01:15:09.334Z,41.81
2023-05-31T01:17:21.649Z,41.55
2023-05-31T01:19:48.771Z,41.76
2023-05-31T01:22:15.780Z,42.18
2023-05-31T01:24:27.653Z,42.24
2023-05-31T01:26:37.429Z,41.76
2023-05-31T01:28:42.765Z,41.76
2023-05-31T01:30:47.332Z,41.84
2023-05-31T01:32:51.279Z,41.89
2023-05-31T01:34:55.076Z,41.87
2023-05-31T01:36:57.701Z,41.79
2023-05-31T01:39:01.288Z,41.81
2023-05-31T01:41:07.313Z,41.89
2023-05-31T01:43:11.993Z,41.75
2023-05-31T01:45:16.697Z,41.93
2023-05-31T01:47:20.140Z,41.53
2023-05-31T01:49:23.764Z,41.73
2023-05-31T01:51:28.814Z,41.79
2023-05-31T01:53:31.572Z,41.23
2023-05-31T01:55:34.422Z,42.12
2023-05-31T01:57:40.338Z,42.77
2023-05-31T01:59:45.629Z,43.30
2023-05-31T02:01:49.323Z,43.23
2023-05-31T02:03:53.188Z,43.03
2023-05-31T02:05:56.912Z,42.22
2023-05-31T02:07:59.648Z,42.41
2023-05-31T02:10:02.316Z,42.06
2023-05-31T02:12:05.636Z,42.04
2023-05-31T02:14:08.293Z,41.36
2023-05-31T02:16:12.248Z,41.95
2023-05-31T02:18:17.827Z,42.09
2023-05-31T02:20:21.023Z,42.34
2023-05-31T02:22:24.016Z,42.47
2023-05-31T02:24:29.450Z,42.56
2023-05-31T02:26:32.139Z,42.75
2023-05-31T02:28:34.790Z,42.44
2023-05-31T02:30:37.428Z,43.10
2023-05-31T02:32:42.660Z,42.84
2023-05-31T02:34:46.026Z,42.82
2023-05-31T02:36:48.665Z,42.52
2023-05-31T02:38:51.272Z,42.22
2023-05-31T02:40:53.903Z,42.24
2023-05-31T02:42:56.497Z,41.79
2023-05-31T02:44:59.109Z,41.71
2023-05-31T02:47:01.764Z,41.82
2023-05-31T02:49:05.762Z,41.54
2023-05-31T02:51:08.354Z,41.55
2023-05-31T02:53:11.144Z,41.76
2023-05-31T02:55:13.808Z,41.79
2023-05-31T02:57:16.455Z,42.15
2023-05-31T02:59:19.266Z,42.02
2023-05-31T03:01:21.980Z,42.08
2023-05-31T03:03:24.811Z,42.15
2023-05-31T03:05:30.203Z,41.97
2023-05-31T03:07:32.850Z,42.07
2023-05-31T03:09:35.413Z,44.10
2023-05-31T03:11:38.139Z,44.54
2023-05-31T03:13:40.916Z,44.01
2023-05-31T03:15:45.852Z,43.84
2023-05-31T03:17:48.588Z,43.19
2023-05-31T03:19:51.263Z,44.64
2023-05-31T03:21:55.738Z,44.79
2023-05-31T03:23:58.403Z,44.81
2023-05-31T03:26:01.190Z,43.98
2023-05-31T03:28:04.933Z,43.16
2023-05-31T03:30:08.898Z,43.20
2023-05-31T03:32:11.808Z,43.83
2023-05-31T03:34:14.466Z,43.83
2023-05-31T03:36:17.429Z,43.19
2023-05-31T03:38:21.427Z,42.70
2023-05-31T03:40:23.990Z,43.06
2023-05-31T03:42:26.626Z,42.88
2023-05-31T03:44:29.319Z,42.51
2023-05-31T03:46:35.158Z,44.54
2023-05-31T03:48:37.768Z,45.18
2023-05-31T03:50:41.231Z,44.52
2023-05-31T03:52:43.844Z,44.21
2023-05-31T03:54:48.536Z,43.81
2023-05-31T03:56:51.183Z,43.71
2023-05-31T03:58:53.814Z,42.91
2023-05-31T04:00:57.415Z,42.23
2023-05-31T04:03:04.987Z,42.97
2023-05-31T04:05:08.588Z,42.56
2023-05-31T04:07:11.357Z,42.21
2023-05-31T04:09:13.939Z,42.15
2023-05-31T04:11:17.978Z,42.16
2023-05-31T04:13:20.634Z,41.93
2023-05-31T04:15:23.260Z,42.17
2023-05-31T04:17:25.950Z,42.12
2023-05-31T04:19:28.595Z,42.04
2023-05-31T04:21:33.730Z,42.20
2023-05-31T04:23:37.600Z,42.12
2023-05-31T04:25:40.237Z,42.43
2023-05-31T04:27:44.167Z,42.29
2023-05-31T04:29:47.677Z,42.36
2023-05-31T04:31:52.224Z,42.12
2023-05-31T04:33:57.984Z,42.37
2023-05-31T04:36:00.611Z,43.36
2023-05-31T04:38:03.894Z,42.66
2023-05-31T04:40:10.948Z,42.74
2023-05-31T04:42:13.582Z,42.86
2023-05-31T04:44:19.834Z,44.21
2023-05-31T04:46:22.983Z,43.77
2023-05-31T04:48:27.662Z,45.26
2023-05-31T04:50:31.466Z,44.69
2023-05-31T04:52:34.288Z,44.24
2023-05-31T04:54:36.986Z,43.58
2023-05-31T04:56:39.598Z,43.22
2023-05-31T04:58:43.015Z,43.47
2023-05-31T05:00:47.750Z,43.19
2023-05-31T05:02:50.674Z,42.96
2023-05-31T05:04:53.323Z,43.34
2023-05-31T05:06:56.080Z,42.98
2023-05-31T05:08:58.778Z,43.65
2023-05-31T05:11:01.554Z,43.67
2023-05-31T05:13:04.344Z,43.93
2023-05-31T05:15:08.008Z,43.99
2023-05-31T05:17:12.054Z,43.95
2023-05-31T05:19:14.820Z,43.96
2023-05-31T05:21:17.410Z,43.74
2023-05-31T05:23:20.044Z,43.67
2023-05-31T05:25:23.533Z,43.01
2023-05-31T05:27:26.367Z,42.90
2023-05-31T05:29:28.988Z,43.18
2023-05-31T05:31:31.690Z,43.28
2023-05-31T05:33:36.198Z,43.26
2023-05-31T05:35:38.807Z,43.26
2023-05-31T05:37:41.438Z,43.29
2023-05-31T05:39:44.036Z,43.51
2023-05-31T05:41:46.656Z,43.14
2023-05-31T05:43:49.275Z,43.40
2023-05-31T05:45:52.051Z,43.53
2023-05-31T05:47:56.984Z,43.67
2023-05-31T05:50:01.755Z,43.30
2023-05-31T05:52:04.625Z,43.11
2023-05-31T05:54:07.466Z,43.25
2023-05-31T05:56:12.415Z,43.36
2023-05-31T05:58:17.658Z,44.01
2023-05-31T06:00:22.444Z,43.91
2023-05-31T06:02:25.497Z,43.98
2023-05-31T06:04:28.084Z,43.86
2023-05-31T06:06:33.173Z,43.65
2023-05-31T06:08:36.020Z,43.85
2023-05-31T06:10:38.828Z,44.16
2023-05-31T06:12:41.589Z,44.04
2023-05-31T06:14:44.175Z,43.94
2023-05-31T06:16:46.944Z,44.10
2023-05-31T06:18:49.590Z,44.25
2023-05-31T06:20:52.394Z,44.21
2023-05-31T06:22:56.761Z,44.19
2023-05-31T06:24:59.994Z,43.86
2023-05-31T06:27:03.754Z,43.75
2023-05-31T06:29:06.561Z,43.67
2023-05-31T06:31:10.328Z,43.67
2023-05-31T06:33:13.000Z,44.03
2023-05-31T06:35:16.218Z,43.48
2023-05-31T06:37:18.919Z,43.84
2023-05-31T06:39:22.893Z,44.83
2023-05-31T06:41:28.957Z,44.45
2023-05-31T06:43:31.603Z,44.34
2023-05-31T06:45:34.324Z,44.36
2023-05-31T06:47:36.993Z,44.38
2023-05-31T06:49:39.776Z,44.68
2023-05-31T06:51:42.418Z,45.00
2023-05-31T06:53:44.995Z,44.39
2023-05-31T06:55:49.015Z,44.68
2023-05-31T06:57:51.628Z,45.28
2023-05-31T06:59:55.603Z,44.96
2023-05-31T07:01:58.428Z,45.05
2023-05-31T07:04:01.368Z,45.24
2023-05-31T07:06:04.330Z,45.07
2023-05-31T07:08:06.937Z,45.12
2023-05-31T07:10:10.507Z,45.25
2023-05-31T07:12:14.543Z,44.88
2023-05-31T07:14:17.153Z,45.01
2023-05-31T07:16:20.020Z,44.80
2023-05-31T07:18:22.757Z,45.42
2023-05-31T07:20:25.352Z,45.58
2023-05-31T07:22:27.971Z,45.57
2023-05-31T07:24:30.598Z,45.42
2023-05-31T07:26:33.373Z,45.42
2023-05-31T07:28:37.372Z,45.83
2023-05-31T07:30:40.037Z,45.65
2023-05-31T07:32:42.740Z,46.18
2023-05-31T07:35:02.336Z,45.89
2023-05-31T07:37:08.211Z,45.25
2023-05-31T07:39:11.808Z,45.36
2023-05-31T07:41:14.701Z,45.40
2023-05-31T07:43:17.482Z,45.60
2023-05-31T07:45:21.657Z,45.36
2023-05-31T07:47:24.305Z,45.90
2023-05-31T07:49:27.025Z,46.45
2023-05-31T07:51:31.590Z,45.99
2023-05-31T07:53:35.581Z,45.51
2023-05-31T07:55:39.906Z,45.87
2023-05-31T07:57:46.880Z,45.50
2023-05-31T07:59:52.712Z,45.32
2023-05-31T08:01:56.758Z,45.31
2023-05-31T08:04:08.326Z,45.26
2023-05-31T08:06:11.178Z,46.15
2023-05-31T08:08:14.420Z,45.99
2023-05-31T08:10:17.292Z,46.80
2023-05-31T08:12:22.814Z,46.00
2023-05-31T08:14:26.481Z,45.84
2023-05-31T08:16:29.528Z,46.02
2023-05-31T08:18:33.708Z,44.88
2023-05-31T08:20:36.390Z,46.16
2023-05-31T08:22:39.062Z,45.70
2023-05-31T08:24:41.874Z,44.60
2023-05-31T08:26:44.467Z,43.24
2023-05-31T08:28:47.076Z,43.91
2023-05-31T08:30:50.565Z,43.80
2023-05-31T08:32:54.956Z,44.39
2023-05-31T08:34:58.952Z,44.09
2023-05-31T08:37:01.959Z,42.73
2023-05-31T08:39:04.804Z,43.40
2023-05-31T08:41:08.743Z,41.73
2023-05-31T08:43:16.266Z,42.16
2023-05-31T08:45:19.948Z,42.83
2023-05-31T08:47:30.048Z,40.87
2023-05-31T08:49:35.169Z,41.84
2023-05-31T08:51:40.056Z,41.56
2023-05-31T08:53:43.549Z,42.14
2023-05-31T08:55:47.385Z,42.07
2023-05-31T08:57:52.333Z,42.00
2023-05-31T08:59:55.658Z,41.86
2023-05-31T09:02:01.964Z,42.05
2023-05-31T09:04:06.320Z,42.35
2023-05-31T09:06:08.934Z,39.89
2023-05-31T09:08:14.903Z,41.04
2023-05-31T09:10:18.059Z,40.94
2023-05-31T09:12:20.745Z,40.81
2023-05-31T09:14:25.324Z,40.34
2023-05-31T09:16:28.259Z,39.98
2023-05-31T09:18:38.443Z,38.84
2023-05-31T09:20:41.098Z,39.43
2023-05-31T09:22:43.793Z,40.42
2023-05-31T09:24:53.049Z,39.90
2023-05-31T09:26:56.563Z,39.88
2023-05-31T09:28:59.227Z,41.05
2023-05-31T09:31:06.136Z,38.94
2023-05-31T09:33:09.440Z,39.88
2023-05-31T09:35:13.915Z,39.30
2023-05-31T09:37:23.475Z,39.93
2023-05-31T09:39:26.541Z,40.09
2023-05-31T09:41:30.509Z,39.90
2023-05-31T09:43:40.181Z,39.77
2023-05-31T09:45:48.936Z,39.85
2023-05-31T09:47:52.887Z,40.37
2023-05-31T09:49:55.866Z,40.15
2023-05-31T09:51:58.498Z,40.89
2023-05-31T09:54:07.985Z,40.96
2023-05-31T09:56:11.508Z,39.64
2023-05-31T09:58:31.398Z,39.57
2023-05-31T10:00:34.415Z,39.97
2023-05-31T10:02:37.346Z,39.76
2023-05-31T10:04:40.314Z,37.94
2023-05-31T10:06:43.760Z,37.82
2023-05-31T10:08:47.461Z,38.59
2023-05-31T10:10:50.184Z,38.83
2023-05-31T10:12:55.692Z,38.23
2023-05-31T10:15:05.470Z,39.07
2023-05-31T10:17:13.968Z,39.28
2023-05-31T10:19:25.300Z,39.29
2023-05-31T10:21:29.628Z,39.09
2023-05-31T10:23:36.953Z,37.33
2023-05-31T10:25:46.927Z,37.69
2023-05-31T10:27:53.007Z,38.37
2023-05-31T10:30:04.686Z,38.46
2023-05-31T10:32:12.265Z,38.77
2023-05-31T10:34:20.936Z,38.73
2023-05-31T10:36:23.617Z,38.54
2023-05-31T10:38:32.413Z,36.97
2023-05-31T10:40:43.442Z,37.04
2023-05-31T10:42:55.768Z,34.85
2023-05-31T10:45:06.191Z,35.64
2023-05-31T10:47:11.543Z,36.70
2023-05-31T10:49:16.241Z,37.01
2023-05-31T10:51:21.205Z,36.60
2023-05-31T10:53:32.872Z,37.32
2023-05-31T10:55:42.341Z,36.40
2023-05-31T10:57:45.670Z,35.71
2023-05-31T10:59:48.971Z,35.51
2023-05-31T11:01:52.751Z,35.37
2023-05-31T11:03:59.621Z,34.37
2023-05-31T11:06:04.842Z,34.84
2023-05-31T11:08:16.305Z,35.06
2023-05-31T11:10:30.033Z,35.06
2023-05-31T11:12:38.624Z,35.67
2023-05-31T11:14:45.322Z,34.63
2023-05-31T11:17:16.694Z,36.71
2023-05-31T11:19:28.575Z,34.51
2023-05-31T11:21:51.327Z,34.56
2023-05-31T11:23:56.878Z,34.77
2023-05-31T11:26:10.361Z,35.72
2023-05-31T11:28:26.850Z,35.32
2023-05-31T11:30:40.677Z,34.30
2023-05-31T11:33:04.710Z,33.41
2023-05-31T11:35:14.423Z,33.52
2023-05-31T11:37:17.421Z,32.34
2023-05-31T11:39:20.176Z,32.48
2023-05-31T11:41:22.906Z,33.88
2023-05-31T11:43:27.918Z,33.30
2023-05-31T11:45:33.060Z,33.54
2023-05-31T11:47:56.391Z,33.82
2023-05-31T11:50:00.417Z,32.40
2023-05-31T11:52:05.489Z,32.30
2023-05-31T11:54:09.201Z,31.69
2023-05-31T11:56:13.845Z,32.87
2023-05-31T11:58:19.532Z,32.60
2023-05-31T12:00:23.113Z,31.70
2023-05-31T12:02:25.840Z,30.87
2023-05-31T12:04:36.627Z,30.52
2023-05-31T12:06:39.450Z,31.27
2023-05-31T12:08:43.432Z,32.28
2023-05-31T12:10:47.583Z,31.70
2023-05-31T12:12:50.177Z,32.35
2023-05-31T12:14:53.571Z,30.09
2023-05-31T12:16:56.487Z,30.78
2023-05-31T12:18:59.085Z,31.06
2023-05-31T12:21:06.852Z,30.27
2023-05-31T12:23:13.348Z,31.79
2023-05-31T12:25:17.793Z,31.94
2023-05-31T12:27:29.602Z,31.66
2023-05-31T12:29:41.059Z,30.19
2023-05-31T12:31:44.212Z,29.38
2023-05-31T12:33:52.522Z,29.39
2023-05-31T12:35:55.883Z,29.04
2023-05-31T12:37:58.560Z,29.56
2023-05-31T12:40:10.586Z,30.84
2023-05-31T12:42:15.714Z,31.63
2023-05-31T12:44:21.150Z,29.05
2023-05-31T12:46:23.891Z,29.60
2023-05-31T12:48:26.703Z,28.99
2023-05-31T12:50:30.976Z,29.88
2023-05-31T12:52:35.712Z,29.00
2023-05-31T12:54:39.678Z,29.83
2023-05-31T12:56:42.420Z,30.91
2023-05-31T12:58:46.427Z,29.78
2023-05-31T13:00:49.093Z,31.16
2023-05-31T13:02:53.352Z,29.88
2023-05-31T13:04:58.804Z,29.67
2023-05-31T13:07:02.968Z,30.29
2023-05-31T13:09:07.966Z,29.74
2023-05-31T13:11:10.804Z,29.13
2023-05-31T13:13:13.409Z,27.89
2023-05-31T13:15:17.612Z,29.18
2023-05-31T13:17:20.388Z,27.18
2023-05-31T13:19:23.021Z,27.61
2023-05-31T13:21:25.731Z,25.60
2023-05-31T13:23:28.367Z,25.43
2023-05-31T13:25:31.048Z,25.14
2023-05-31T13:27:33.864Z,22.40
2023-05-31T13:29:36.605Z,20.98
2023-05-31T13:31:40.699Z,19.27
2023-05-31T13:33:43.357Z,18.71
2023-05-31T13:35:45.954Z,16.71
2023-05-31T13:37:48.544Z,16.15
2023-05-31T13:39:51.278Z,14.88
2023-05-31T13:41:54.080Z,13.99
2023-05-31T13:43:56.738Z,13.53
2023-05-31T13:46:00.661Z,13.11
2023-05-31T13:48:04.678Z,11.97
2023-05-31T13:50:08.196Z,11.82
2023-05-31T13:52:14.298Z,11.52
2023-05-31T13:54:17.983Z,11.18
2023-05-31T13:56:20.855Z,10.26
2023-05-31T13:58:25.777Z,10.18
2023-05-31T14:00:28.774Z,9.94
2023-05-31T14:02:33.271Z,9.32
2023-05-31T14:04:37.340Z,8.54
2023-05-31T14:06:40.485Z,8.86
2023-05-31T14:08:45.142Z,8.57
2023-05-31T14:10:47.703Z,8.99
2023-05-31T14:12:50.483Z,8.85
2023-05-31T14:14:53.113Z,8.41
2023-05-31T14:16:55.907Z,8.63
2023-05-31T14:18:58.549Z,8.29
2023-05-31T14:21:03.093Z,8.04
2023-05-31T14:23:06.538Z,8.07
2023-05-31T14:25:09.604Z,8.21
2023-05-31T14:27:12.241Z,8.52
2023-05-31T14:29:14.927Z,8.23
2023-05-31T14:31:17.578Z,8.58
2023-05-31T14:33:20.817Z,8.55
2023-05-31T14:35:24.198Z,8.20
2023-05-31T14:37:35.814Z,8.58
2023-05-31T14:39:48.780Z,9.55
2023-05-31T14:41:51.400Z,9.23
2023-05-31T14:43:54.115Z,9.24
2023-05-31T14:45:56.782Z,8.75
2023-05-31T14:48:00.824Z,9.56
2023-05-31T14:50:04.228Z,9.36
2023-05-31T14:52:08.604Z,9.88
2023-05-31T14:54:12.668Z,9.39
2023-05-31T14:56:18.318Z,9.67
2023-05-31T14:58:21.808Z,9.95
2023-05-31T15:00:24.746Z,10.03
2023-05-31T15:02:27.379Z,10.30
2023-05-31T15:04:30.069Z,10.73
2023-05-31T15:06:32.734Z,10.55
2023-05-31T15:08:35.797Z,11.05
2023-05-31T15:10:39.927Z,10.88
2023-05-31T15:12:42.552Z,11.64
2023-05-31T15:14:45.207Z,11.56
2023-05-31T15:16:48.911Z,11.47
2023-05-31T15:18:52.533Z,12.29
2023-05-31T15:20:55.614Z,12.99
2023-05-31T15:22:58.258Z,12.87
2023-05-31T15:25:00.913Z,12.47
2023-05-31T15:27:05.247Z,12.32
2023-05-31T15:29:07.868Z,12.95
2023-05-31T15:31:10.669Z,13.56
2023-05-31T15:33:13.309Z,13.52
2023-05-31T15:35:16.117Z,13.49
2023-05-31T15:37:18.764Z,13.92
2023-05-31T15:39:21.608Z,13.58
2023-05-31T15:41:24.263Z,14.31
2023-05-31T15:43:29.229Z,14.13
2023-05-31T15:45:31.919Z,14.66
2023-05-31T15:47:34.597Z,13.87
2023-05-31T15:49:37.782Z,14.61
2023-05-31T15:51:40.381Z,14.59
2023-05-31T15:53:43.031Z,14.72
2023-05-31T15:55:47.489Z,15.81
2023-05-31T15:57:50.138Z,16.08
2023-05-31T15:59:55.070Z,15.81
2023-05-31T16:01:57.797Z,16.42
2023-05-31T16:04:00.755Z,15.53
2023-05-31T16:06:05.966Z,15.52
2023-05-31T16:08:09.883Z,16.16
2023-05-31T16:10:13.704Z,15.85
2023-05-31T16:12:16.366Z,16.42
2023-05-31T16:14:19.022Z,16.04
2023-05-31T16:16:22.996Z,15.95
2023-05-31T16:18:25.670Z,17.08
2023-05-31T16:20:28.321Z,17.25
2023-05-31T16:22:31.526Z,17.50
2023-05-31T16:24:34.128Z,17.26
2023-05-31T16:26:36.748Z,17.00
2023-05-31T16:28:39.376Z,17.16
2023-05-31T16:30:41.992Z,17.27
2023-05-31T16:32:46.222Z,17.51
2023-05-31T16:34:49.733Z,17.91
2023-05-31T16:36:52.384Z,18.40
2023-05-31T16:38:55.034Z,18.34
2023-05-31T16:40:57.684Z,18.34
2023-05-31T16:43:00.309Z,18.21
2023-05-31T16:45:04.341Z,19.34
2023-05-31T16:47:07.794Z,19.10
2023-05-31T16:49:12.057Z,18.43
2023-05-31T16:51:14.701Z,19.51
2023-05-31T16:53:18.250Z,18.80
2023-05-31T16:55:21.182Z,18.89
2023-05-31T16:57:23.761Z,19.72
2023-05-31T16:59:26.324Z,19.22
2023-05-31T17:01:29.086Z,19.37
2023-05-31T17:03:31.935Z,20.05
2023-05-31T17:05:35.993Z,20.31
2023-05-31T17:07:39.044Z,20.14
2023-05-31T17:09:41.695Z,20.70
2023-05-31T17:11:44.322Z,20.54
2023-05-31T17:13:46.989Z,19.80
2023-05-31T17:15:49.763Z,20.93
2023-05-31T17:17:53.090Z,20.74
2023-05-31T17:19:55.986Z,20.68
2023-05-31T17:22:00.018Z,20.78
2023-05-31T17:24:02.725Z,21.48
2023-05-31T17:26:05.620Z,21.08
2023-05-31T17:28:09.102Z,21.30
2023-05-31T17:30:12.423Z,21.80
2023-05-31T17:32:18.228Z,22.00
2023-05-31T17:34:20.865Z,21.64
2023-05-31T17:36:23.496Z,22.33
2023-05-31T17:38:27.404Z,22.61
2023-05-31T17:40:29.987Z,26.39
2023-05-31T17:42:32.596Z,26.04
2023-05-31T17:44:38.367Z,26.41
2023-05-31T17:46:41.108Z,26.55
2023-05-31T17:48:43.918Z,26.80
2023-05-31T17:50:47.168Z,27.40
2023-05-31T17:52:49.765Z,27.20
2023-05-31T17:54:53.792Z,27.86
2023-05-31T17:56:56.439Z,28.46
2023-05-31T17:58:59.041Z,27.69
2023-05-31T18:01:01.910Z,29.15
2023-05-31T18:03:06.198Z,29.41
2023-05-31T18:05:09.443Z,29.63
2023-05-31T18:07:12.168Z,29.35
2023-05-31T18:09:14.891Z,29.31
2023-05-31T18:11:19.959Z,30.07
2023-05-31T18:13:22.577Z,30.47
2023-05-31T18:15:25.895Z,30.29
2023-05-31T18:17:28.555Z,29.17
2023-05-31T18:19:33.014Z,29.60
2023-05-31T18:21:35.663Z,29.08
2023-05-31T18:23:39.031Z,29.64
2023-05-31T18:25:42.322Z,29.58
2023-05-31T18:27:46.323Z,29.87
2023-05-31T18:29:50.404Z,30.23
2023-05-31T18:31:54.154Z,30.35
2023-05-31T18:33:57.506Z,30.56
2023-05-31T18:36:00.081Z,30.97
2023-05-31T18:38:03.370Z,31.58
2023-05-31T18:40:07.090Z,31.31
2023-05-31T18:42:10.168Z,31.53
2023-05-31T18:44:14.152Z,31.88
2023-05-31T18:46:16.839Z,32.08
2023-05-31T18:48:19.610Z,31.70
2023-05-31T18:50:22.206Z,31.53
2023-05-31T18:52:24.835Z,32.15
2023-05-31T18:54:27.390Z,32.77
2023-05-31T18:56:30.017Z,33.06
2023-05-31T18:58:33.042Z,33.78
2023-05-31T19:00:37.023Z,33.37
2023-05-31T19:02:39.655Z,33.17
2023-05-31T19:04:42.258Z,33.75
2023-05-31T19:06:45.194Z,34.13
2023-05-31T19:08:47.794Z,34.46
2023-05-31T19:10:50.399Z,35.17
2023-05-31T19:12:53.029Z,35.60
2023-05-31T19:14:55.705Z,35.88
2023-05-31T19:16:59.742Z,36.33
2023-05-31T19:19:03.003Z,36.22
2023-05-31T19:21:05.798Z,36.67
2023-05-31T19:23:08.413Z,36.86
2023-05-31T19:25:11.170Z,36.97
2023-05-31T19:27:13.803Z,37.54
2023-05-31T19:29:16.487Z,37.77
2023-05-31T19:31:19.370Z,38.06
2023-05-31T19:33:23.396Z,38.14
2023-05-31T19:35:26.289Z,38.45
2023-05-31T19:37:28.904Z,38.51
2023-05-31T19:39:31.501Z,38.41
2023-05-31T19:41:34.276Z,38.76
2023-05-31T19:43:36.855Z,39.35
2023-05-31T19:45:39.490Z,39.10
2023-05-31T19:47:42.108Z,39.33
2023-05-31T19:49:46.138Z,39.62
2023-05-31T19:51:48.760Z,39.78
2023-05-31T19:53:51.408Z,40.10
2023-05-31T19:55:53.976Z,39.98
2023-05-31T19:57:56.586Z,39.58
2023-05-31T19:59:59.280Z,39.38
2023-05-31T20:02:02.138Z,39.24
2023-05-31T20:04:04.864Z,39.68
2023-05-31T20:06:08.949Z,39.82
2023-05-31T20:08:13.155Z,40.07
2023-05-31T20:10:15.804Z,39.87
2023-05-31T20:12:18.751Z,40.48
2023-05-31T20:14:22.089Z,41.25
2023-05-31T20:16:24.853Z,42.08
2023-05-31T20:18:27.452Z,41.90
2023-05-31T20:20:30.052Z,42.10
2023-05-31T20:22:34.011Z,42.36
2023-05-31T20:24:37.078Z,42.62
2023-05-31T20:26:39.796Z,42.38
2023-05-31T20:28:42.636Z,42.81
2023-05-31T20:30:45.269Z,43.06
2023-05-31T20:32:47.995Z,42.87
2023-05-31T20:34:50.647Z,42.83
2023-05-31T20:36:53.271Z,42.78
2023-05-31T20:38:58.504Z,42.82
2023-05-31T20:41:01.514Z,42.78
2023-05-31T20:43:04.251Z,43.52
2023-05-31T20:45:08.978Z,43.67
2023-05-31T20:47:12.128Z,43.57
2023-05-31T20:49:14.737Z,43.93
2023-05-31T20:51:17.349Z,44.15
2023-05-31T20:53:20.715Z,44.30
2023-05-31T20:55:25.247Z,44.64
2023-05-31T20:57:28.214Z,44.86
2023-05-31T20:59:31.956Z,45.19
2023-05-31T21:01:34.554Z,45.32
2023-05-31T21:03:37.221Z,44.98
2023-05-31T21:05:39.943Z,45.11
2023-05-31T21:07:42.597Z,45.52
2023-05-31T21:09:45.235Z,45.56
2023-05-31T21:11:51.142Z,45.46
2023-05-31T21:13:53.732Z,45.38
2023-05-31T21:15:56.346Z,45.54
2023-05-31T21:17:59.070Z,45.54
2023-05-31T21:20:01.984Z,45.05
2023-05-31T21:22:04.998Z,44.81
2023-05-31T21:24:07.650Z,45.11
2023-05-31T21:26:10.332Z,45.35
2023-05-31T21:28:14.419Z,45.07
2023-05-31T21:30:17.073Z,45.43
2023-05-31T21:32:19.801Z,45.55
2023-05-31T21:34:22.441Z,46.00
2023-05-31T21:36:25.004Z,46.61
2023-05-31T21:38:27.627Z,46.82
2023-05-31T21:40:30.242Z,46.71
2023-05-31T21:42:32.839Z,46.36
2023-05-31T21:44:37.297Z,46.28
2023-05-31T21:46:39.915Z,46.57
2023-05-31T21:48:42.588Z,46.83
2023-05-31T21:50:45.351Z,46.73
2023-05-31T21:52:48.005Z,46.90
2023-05-31T21:54:50.585Z,46.65
2023-05-31T21:56:53.160Z,46.92
2023-05-31T21:58:56.429Z,47.18
2023-05-31T22:01:00.888Z,47.55
2023-05-31T22:03:04.132Z,47.76
2023-05-31T22:05:07.681Z,47.85
2023-05-31T22:07:10.720Z,48.19
2023-05-31T22:09:13.396Z,47.72
2023-05-31T22:11:16.111Z,47.73
2023-05-31T22:13:18.825Z,47.70
2023-05-31T22:15:25.270Z,47.57
2023-05-31T22:17:30.983Z,47.62
2023-05-31T22:19:37.985Z,47.80
2023-05-31T22:21:40.955Z,48.06
2023-05-31T22:23:43.638Z,48.23
2023-05-31T22:25:49.001Z,47.97
2023-05-31T22:27:52.289Z,48.22
2023-05-31T22:29:55.245Z,48.35
2023-05-31T22:31:57.886Z,48.49
2023-05-31T22:34:01.901Z,48.65
2023-05-31T22:36:04.686Z,48.73
2023-05-31T22:38:07.453Z,48.55
2023-05-31T22:40:10.549Z,48.90
2023-05-31T22:42:13.198Z,49.42
2023-05-31T22:44:15.877Z,48.96
2023-05-31T22:46:18.538Z,49.44
2023-05-31T22:48:21.223Z,49.45
2023-05-31T22:50:25.149Z,49.55
2023-05-31T22:52:27.768Z,49.35
2023-05-31T22:54:31.547Z,50.09
2023-05-31T22:56:34.152Z,50.33
2023-05-31T22:58:36.750Z,50.00
2023-05-31T23:00:39.376Z,50.15
2023-05-31T23:02:42.639Z,49.99
2023-05-31T23:04:46.491Z,50.42
2023-05-31T23:06:50.545Z,50.61
2023-05-31T23:08:54.456Z,50.95
2023-05-31T23:10:58.732Z,50.69
2023-05-31T23:13:02.424Z,50.49
2023-05-31T23:15:06.592Z,50.63
2023-05-31T23:17:10.300Z,50.96
2023-05-31T23:19:14.787Z,50.85
2023-05-31T23:21:17.413Z,50.95
2023-05-31T23:23:22.427Z,50.94
2023-05-31T23:25:25.070Z,51.08
2023-05-31T23:27:27.707Z,50.85
2023-05-31T23:29:30.362Z,50.95
2023-05-31T23:31:32.973Z,50.97
2023-05-31T23:33:36.040Z,51.03
2023-05-31T23:35:38.809Z,50.76
2023-05-31T23:37:42.052Z,50.78
2023-05-31T23:39:46.141Z,50.61
2023-05-31T23:41:48.806Z,50.84
2023-05-31T23:43:51.396Z,51.00
2023-05-31T23:45:54.000Z,51.17
2023-05-31T23:47:56.710Z,51.15
2023-05-31T23:49:59.461Z,51.05
2023-05-31T23:52:02.224Z,51.12
2023-05-31T23:54:09.069Z,51.12
2023-05-31T23:56:13.062Z,51.11
2023-05-31T23:58:15.725Z,51.28
